createdAt,value
2023-04-09T00:01:17.837Z,28.20
2023-04-09T00:03:44.412Z,32.63
2023-04-09T00:06:11.898Z,31.23
2023-04-09T00:08:38.323Z,28.35
2023-04-09T00:11:05.056Z,29.03
2023-04-09T00:13:39.338Z,27.73
2023-04-09T00:16:07.543Z,27.80
2023-04-09T00:18:34.124Z,32.70
2023-04-09T00:21:00.703Z,32.08
2023-04-09T00:23:27.529Z,30.97
2023-04-09T00:25:54.352Z,25.20
2023-04-09T00:28:20.880Z,27.13
2023-04-09T00:30:47.291Z,29.15
2023-04-09T00:33:13.916Z,33.05
2023-04-09T00:35:41.605Z,29.97
2023-04-09T00:38:08.085Z,28.33
2023-04-09T00:40:34.486Z,30.08
2023-04-09T00:43:01.184Z,27.63
2023-04-09T00:45:28.158Z,28.35
2023-04-09T00:47:54.649Z,30.60
2023-04-09T00:50:21.518Z,29.70
2023-04-09T00:52:48.089Z,33.05
2023-04-09T00:55:15.529Z,29.70
2023-04-09T00:57:42.073Z,32.25
2023-04-09T01:00:09.774Z,28.83
2023-04-09T01:02:36.877Z,32.92
2023-04-09T01:05:04.069Z,30.83
2023-04-09T01:07:47.455Z,30.60
2023-04-09T01:10:31.998Z,29.38
2023-04-09T01:12:58.499Z,31.43
2023-04-09T01:15:27.200Z,41.35
2023-04-09T01:18:03.032Z,35.35
2023-04-09T01:20:35.499Z,28.23
2023-04-09T01:23:18.782Z,32.30
2023-04-09T01:25:59.678Z,29.17
2023-04-09T01:28:32.213Z,38.75
2023-04-09T01:31:03.060Z,27.42
2023-04-09T01:33:31.466Z,28.65
2023-04-09T01:36:00.026Z,30.95
2023-04-09T01:38:27.655Z,30.07
2023-04-09T01:40:56.508Z,26.95
2023-04-09T01:43:25.200Z,34.35
2023-04-09T01:45:51.938Z,23.90
2023-04-09T01:48:19.613Z,28.98
2023-04-09T01:50:46.837Z,27.50
2023-04-09T01:53:13.860Z,28.88
2023-04-09T01:55:40.260Z,29.65
2023-04-09T01:58:06.758Z,25.73
2023-04-09T02:00:39.989Z,29.50
2023-04-09T02:03:12.600Z,34.30
2023-04-09T02:05:44.614Z,29.70
2023-04-09T02:08:13.426Z,26.42
2023-04-09T02:10:40.683Z,29.83
2023-04-09T02:13:12.611Z,29.25
2023-04-09T02:15:40.389Z,32.57
2023-04-09T02:18:21.319Z,28.33
2023-04-09T02:20:47.738Z,34.08
2023-04-09T02:23:16.060Z,32.45
2023-04-09T02:25:44.192Z,30.25
2023-04-09T02:28:10.668Z,30.67
2023-04-09T02:30:37.237Z,37.38
2023-04-09T02:33:03.813Z,26.90
2023-04-09T02:35:30.411Z,27.02
2023-04-09T02:37:57.007Z,30.55
2023-04-09T02:40:23.513Z,28.47
2023-04-09T02:42:52.012Z,29.42
2023-04-09T02:45:18.716Z,31.10
2023-04-09T02:47:45.226Z,31.48
2023-04-09T02:50:11.686Z,30.83
2023-04-09T02:52:38.063Z,26.80
2023-04-09T02:55:04.980Z,25.95
2023-04-09T02:57:33.778Z,33.15
2023-04-09T03:00:00.594Z,26.95
2023-04-09T03:02:27.499Z,27.33
2023-04-09T03:04:54.170Z,28.80
2023-04-09T03:07:20.609Z,26.48
2023-04-09T03:09:46.989Z,26.00
2023-04-09T03:12:13.399Z,31.05
2023-04-09T03:14:39.901Z,31.25
2023-04-09T03:17:06.508Z,30.20
2023-04-09T03:19:33.022Z,34.42
2023-04-09T03:21:59.440Z,30.38
2023-04-09T03:24:25.864Z,32.45
2023-04-09T03:26:52.230Z,29.52
2023-04-09T03:29:19.752Z,30.53
2023-04-09T03:31:46.108Z,30.08
2023-04-09T03:34:12.504Z,24.98
2023-04-09T03:36:39.025Z,28.42
2023-04-09T03:39:05.586Z,27.67
2023-04-09T03:41:32.024Z,26.73
2023-04-09T03:43:58.412Z,28.92
2023-04-09T03:46:25.585Z,31.10
2023-04-09T03:48:52.203Z,27.50
2023-04-09T03:51:18.892Z,25.15
2023-04-09T03:53:45.468Z,25.43
2023-04-09T03:56:11.987Z,26.00
2023-04-09T03:58:47.740Z,27.65
2023-04-09T04:01:14.333Z,24.95
2023-04-09T04:03:41.093Z,27.45
2023-04-09T04:06:07.764Z,28.13
2023-04-09T04:08:34.216Z,23.70
2023-04-09T04:11:10.421Z,28.65
2023-04-09T04:13:42.658Z,26.30
2023-04-09T04:16:10.293Z,24.30
2023-04-09T04:18:36.950Z,22.10
2023-04-09T04:21:03.710Z,21.17
2023-04-09T04:23:30.219Z,26.42
2023-04-09T04:25:58.109Z,28.83
2023-04-09T04:28:24.600Z,21.67
2023-04-09T04:30:51.238Z,24.57
2023-04-09T04:33:17.696Z,25.42
2023-04-09T04:35:44.208Z,28.35
2023-04-09T04:38:13.538Z,29.58
2023-04-09T04:40:47.479Z,24.90
2023-04-09T04:43:26.273Z,27.87
2023-04-09T04:45:53.660Z,28.02
2023-04-09T04:48:20.459Z,26.10
2023-04-09T04:50:47.038Z,27.02
2023-04-09T04:53:13.440Z,29.50
2023-04-09T04:55:48.298Z,29.13
2023-04-09T04:58:14.984Z,29.27
2023-04-09T05:00:41.437Z,25.95
2023-04-09T05:03:07.906Z,25.40
2023-04-09T05:05:34.470Z,26.45
2023-04-09T05:08:09.231Z,28.20
2023-04-09T05:10:43.827Z,25.85
2023-04-09T05:13:10.330Z,24.35
2023-04-09T05:15:41.269Z,27.58
2023-04-09T05:18:08.496Z,25.90
2023-04-09T05:20:35.202Z,25.43
2023-04-09T05:23:01.922Z,25.63
2023-04-09T05:25:28.514Z,24.88
2023-04-09T05:27:55.492Z,24.13
2023-04-09T05:30:22.162Z,25.05
2023-04-09T05:32:48.612Z,30.03
2023-04-09T05:35:15.082Z,27.58
2023-04-09T05:37:41.576Z,31.55
2023-04-09T05:40:08.754Z,31.08
2023-04-09T05:42:36.005Z,31.35
2023-04-09T05:45:02.977Z,28.00
2023-04-09T05:47:29.437Z,31.00
2023-04-09T05:49:56.138Z,32.40
2023-04-09T05:52:22.593Z,30.30
2023-04-09T05:54:49.248Z,35.65
2023-04-09T05:57:15.913Z,37.67
2023-04-09T05:59:42.237Z,37.20
2023-04-09T06:02:08.904Z,38.63
2023-04-09T06:04:35.432Z,36.03
2023-04-09T06:07:02.633Z,33.85
2023-04-09T06:09:29.365Z,32.47
2023-04-09T06:12:10.761Z,30.45
2023-04-09T06:14:37.673Z,37.85
2023-04-09T06:17:08.374Z,35.72
2023-04-09T06:19:35.228Z,32.13
2023-04-09T06:22:01.807Z,32.60
2023-04-09T06:24:28.393Z,32.17
2023-04-09T06:26:54.992Z,33.38
2023-04-09T06:29:24.194Z,32.33
2023-04-09T06:31:50.818Z,31.08
2023-04-09T06:34:17.208Z,30.80
2023-04-09T06:36:44.588Z,29.38
2023-04-09T06:39:11.113Z,30.13
2023-04-09T06:41:37.597Z,25.00
2023-04-09T06:44:04.118Z,26.92
2023-04-09T06:46:30.601Z,27.37
2023-04-09T06:48:57.048Z,26.00
2023-04-09T06:51:23.613Z,25.70
2023-04-09T06:53:50.238Z,23.17
2023-04-09T06:56:16.876Z,28.40
2023-04-09T06:58:43.277Z,25.13
2023-04-09T07:01:10.208Z,30.95
2023-04-09T07:03:36.970Z,30.67
2023-04-09T07:06:04.298Z,25.05
2023-04-09T07:08:30.926Z,25.92
2023-04-09T07:10:57.444Z,23.80
2023-04-09T07:13:24.021Z,23.85
2023-04-09T07:15:50.473Z,20.75
2023-04-09T07:18:17.062Z,26.15
2023-04-09T07:20:46.652Z,21.75
2023-04-09T07:23:13.209Z,24.73
2023-04-09T07:25:39.758Z,23.77
2023-04-09T07:28:06.368Z,24.90
2023-04-09T07:30:32.885Z,22.02
2023-04-09T07:32:59.525Z,22.65
2023-04-09T07:35:26.231Z,23.40
2023-04-09T07:37:52.707Z,26.08
2023-04-09T07:40:19.932Z,21.27
2023-04-09T07:42:46.372Z,17.65
2023-04-09T07:48:02.656Z,19.60
2023-04-09T07:50:29.930Z,17.88
2023-04-09T07:52:56.424Z,26.25
2023-04-09T07:55:22.975Z,20.58
2023-04-09T07:57:49.378Z,20.33
2023-04-09T08:00:16.442Z,20.53
2023-04-09T08:02:43.932Z,19.77
2023-04-09T08:05:10.979Z,24.10
2023-04-09T08:07:37.559Z,22.55
2023-04-09T08:10:04.818Z,19.70
2023-04-09T08:12:31.193Z,20.97
2023-04-09T08:14:57.711Z,19.73
2023-04-09T08:17:24.708Z,20.52
2023-04-09T08:19:51.409Z,18.95
2023-04-09T08:22:18.074Z,25.40
2023-04-09T08:24:44.642Z,24.90
2023-04-09T08:27:11.212Z,23.27
2023-04-09T08:29:38.746Z,22.38
2023-04-09T08:32:05.394Z,24.08
2023-04-09T08:34:31.767Z,17.40
2023-04-09T08:36:58.397Z,20.83
2023-04-09T08:39:25.367Z,23.50
2023-04-09T08:41:52.320Z,21.27
2023-04-09T08:44:19.065Z,21.23
2023-04-09T08:46:45.450Z,22.67
2023-04-09T08:49:17.903Z,24.00
2023-04-09T08:51:48.621Z,19.42
2023-04-09T08:54:17.304Z,21.92
2023-04-09T08:56:43.842Z,23.83
2023-04-09T08:59:10.219Z,20.65
2023-04-09T09:01:36.964Z,20.57
2023-04-09T09:04:08.286Z,22.08
2023-04-09T09:06:37.307Z,22.85
2023-04-09T09:09:08.026Z,24.52
2023-04-09T09:11:40.459Z,21.15
2023-04-09T09:14:09.114Z,20.55
2023-04-09T09:16:43.550Z,24.67
2023-04-09T09:19:28.714Z,23.38
2023-04-09T09:21:59.887Z,26.33
2023-04-09T09:24:26.408Z,25.00
2023-04-09T09:26:54.635Z,25.60
2023-04-09T09:29:22.326Z,25.33
2023-04-09T09:31:56.554Z,25.08
2023-04-09T09:34:24.771Z,24.23
2023-04-09T09:36:51.337Z,21.60
2023-04-09T09:39:17.981Z,27.45
2023-04-09T09:41:46.000Z,24.65
2023-04-09T09:44:30.246Z,23.58
2023-04-09T09:46:58.681Z,21.67
2023-04-09T09:49:25.336Z,22.85
2023-04-09T09:51:53.379Z,22.88
2023-04-09T09:54:25.280Z,21.63
2023-04-09T09:56:55.981Z,21.05
2023-04-09T09:59:31.004Z,22.58
2023-04-09T10:02:02.351Z,20.65
2023-04-09T10:04:33.435Z,22.98
2023-04-09T10:07:04.086Z,23.63
2023-04-09T10:09:31.254Z,20.73
2023-04-09T10:11:59.353Z,18.00
2023-04-09T10:14:27.517Z,19.65
2023-04-09T10:16:54.064Z,18.35
2023-04-09T10:19:22.452Z,17.80
2023-04-09T10:22:04.454Z,19.08
2023-04-09T10:24:31.806Z,18.52
2023-04-09T10:27:15.708Z,20.77
2023-04-09T10:29:47.990Z,17.38
2023-04-09T10:32:26.887Z,19.23
2023-04-09T10:34:57.733Z,18.27
2023-04-09T10:37:26.089Z,16.77
2023-04-09T10:39:53.670Z,19.98
2023-04-09T10:42:42.049Z,20.13
2023-04-09T10:45:11.998Z,23.97
2023-04-09T10:47:40.684Z,17.90
2023-04-09T10:50:18.749Z,16.98
2023-04-09T10:52:46.026Z,18.15
2023-04-09T10:55:34.540Z,19.75
2023-04-09T10:58:00.949Z,18.30
2023-04-09T11:00:27.518Z,17.05
2023-04-09T11:03:03.215Z,15.05
2023-04-09T11:05:33.988Z,17.60
2023-04-09T11:08:06.576Z,15.73
2023-04-09T11:10:34.211Z,13.10
2023-04-09T11:13:01.491Z,20.25
2023-04-09T11:15:28.538Z,12.35
2023-04-09T11:17:55.615Z,17.70
2023-04-09T11:20:24.525Z,16.45
2023-04-09T11:22:56.163Z,13.02
2023-04-09T11:25:25.725Z,16.58
2023-04-09T11:27:52.950Z,13.13
2023-04-09T11:30:20.308Z,12.10
2023-04-09T11:32:53.202Z,11.30
2023-04-09T11:35:21.454Z,11.63
2023-04-09T11:37:50.049Z,10.27
2023-04-09T11:40:21.964Z,10.02
2023-04-09T11:42:50.205Z,12.70
2023-04-09T11:45:17.626Z,10.05
2023-04-09T11:47:45.195Z,11.18
2023-04-09T11:50:13.965Z,8.40
2023-04-09T11:52:41.457Z,10.23
2023-04-09T11:55:09.598Z,8.48
2023-04-09T11:57:47.055Z,9.03
2023-04-09T12:00:17.679Z,11.07
2023-04-09T12:02:49.391Z,9.25
2023-04-09T12:05:24.863Z,12.82
2023-04-09T12:10:30.491Z,8.60
2023-04-09T12:13:03.176Z,9.05
2023-04-09T12:15:34.868Z,10.38
2023-04-09T12:18:01.993Z,11.48
2023-04-09T12:20:49.750Z,10.10
2023-04-09T12:23:16.643Z,10.52
2023-04-09T12:25:45.275Z,10.25
2023-04-09T12:28:17.980Z,7.57
2023-04-09T12:30:44.907Z,9.63
2023-04-09T12:33:11.650Z,9.20
2023-04-09T12:35:38.626Z,8.20
2023-04-09T12:38:05.653Z,8.32
2023-04-09T12:40:32.281Z,8.30
2023-04-09T12:42:59.146Z,9.02
2023-04-09T12:48:06.545Z,9.43
2023-04-09T12:50:33.338Z,8.60
2023-04-09T12:53:03.588Z,8.93
2023-04-09T12:55:30.052Z,8.65
2023-04-09T12:57:56.705Z,8.13
2023-04-09T13:00:23.145Z,13.77
2023-04-09T13:02:49.937Z,9.82
2023-04-09T13:05:16.474Z,10.13
2023-04-09T13:07:43.567Z,10.05
2023-04-09T13:10:10.578Z,9.88
2023-04-09T13:12:37.430Z,10.95
2023-04-09T13:15:04.213Z,8.65
2023-04-09T13:17:30.638Z,11.10
2023-04-09T13:19:57.111Z,9.15
2023-04-09T13:22:23.521Z,8.98
2023-04-09T13:24:50.092Z,10.75
2023-04-09T13:27:17.330Z,8.65
2023-04-09T13:29:43.799Z,11.30
2023-04-09T13:34:51.363Z,11.45
2023-04-09T13:37:17.841Z,11.27
2023-04-09T13:39:45.424Z,9.63
2023-04-09T13:42:13.951Z,9.60
2023-04-09T13:44:42.731Z,10.35
2023-04-09T13:47:11.410Z,9.73
2023-04-09T13:49:38.056Z,10.30
2023-04-09T13:52:05.032Z,9.52
2023-04-09T13:54:32.201Z,8.23
2023-04-09T13:56:58.759Z,11.73
2023-04-09T13:59:25.402Z,8.98
2023-04-09T14:01:52.181Z,10.63
2023-04-09T14:04:19.365Z,9.68
2023-04-09T14:06:46.870Z,10.30
2023-04-09T14:09:13.389Z,8.07
2023-04-09T14:11:39.770Z,9.93
2023-04-09T14:14:06.400Z,8.63
2023-04-09T14:16:33.067Z,9.43
2023-04-09T14:18:59.807Z,11.15
2023-04-09T14:21:27.063Z,7.93
2023-04-09T14:23:53.672Z,7.85
2023-04-09T14:26:21.645Z,9.83
2023-04-09T14:28:49.572Z,8.77
2023-04-09T14:31:20.266Z,9.45
2023-04-09T14:33:47.719Z,10.05
2023-04-09T14:36:14.491Z,10.50
2023-04-09T14:38:40.963Z,9.53
2023-04-09T14:41:10.032Z,8.95
2023-04-09T14:43:36.531Z,9.40
2023-04-09T14:46:04.077Z,12.32
2023-04-09T14:48:30.664Z,9.35
2023-04-09T14:50:57.248Z,10.60
2023-04-09T14:53:23.820Z,10.77
2023-04-09T14:55:50.446Z,10.13
2023-04-09T14:58:17.285Z,8.70
2023-04-09T15:00:45.173Z,10.00
2023-04-09T15:03:11.957Z,8.80
2023-04-09T15:05:38.854Z,9.60
2023-04-09T15:08:05.701Z,8.93
2023-04-09T15:10:32.316Z,10.25
2023-04-09T15:13:07.949Z,7.22
2023-04-09T15:15:34.508Z,12.33
2023-04-09T15:18:09.876Z,6.57
2023-04-09T15:20:40.494Z,11.50
2023-04-09T15:23:06.990Z,12.52
2023-04-09T15:25:33.400Z,9.63
2023-04-09T15:28:00.014Z,8.23
2023-04-09T15:30:26.559Z,11.63
2023-04-09T15:32:53.232Z,9.32
2023-04-09T15:35:25.013Z,10.35
2023-04-09T15:37:52.296Z,11.38
2023-04-09T15:40:19.202Z,19.73
2023-04-09T15:42:45.939Z,11.35
2023-04-09T15:45:14.696Z,8.48
2023-04-09T15:47:47.033Z,9.25
2023-04-09T15:50:14.583Z,8.15
2023-04-09T15:52:41.355Z,9.13
2023-04-09T15:55:08.573Z,7.85
2023-04-09T15:57:35.195Z,7.43
2023-04-09T16:00:01.895Z,9.80
2023-04-09T16:02:28.586Z,9.32
2023-04-09T16:04:55.689Z,7.53
2023-04-09T16:07:22.130Z,9.85
2023-04-09T16:09:49.018Z,8.35
2023-04-09T16:12:15.438Z,7.30
2023-04-09T16:14:42.339Z,8.27
2023-04-09T16:17:08.941Z,10.50
2023-04-09T16:19:39.471Z,7.20
2023-04-09T16:22:06.494Z,9.50
2023-04-09T16:24:33.008Z,9.55
2023-04-09T16:26:59.394Z,8.25
2023-04-09T16:29:25.953Z,8.77
2023-04-09T16:31:52.992Z,9.80
2023-04-09T16:34:19.920Z,8.13
2023-04-09T16:36:46.376Z,9.45
2023-04-09T16:39:15.626Z,8.60
2023-04-09T16:41:43.461Z,8.30
2023-04-09T16:44:10.538Z,9.43
2023-04-09T16:46:36.952Z,8.55
2023-04-09T16:49:03.453Z,7.63
2023-04-09T16:51:29.954Z,9.45
2023-04-09T16:53:56.518Z,9.27
2023-04-09T16:56:41.398Z,10.20
2023-04-09T16:59:08.167Z,9.32
2023-04-09T17:01:41.162Z,9.30
2023-04-09T17:04:07.881Z,9.15
2023-04-09T17:06:34.446Z,7.70
2023-04-09T17:09:01.423Z,9.77
2023-04-09T17:11:28.270Z,10.45
2023-04-09T17:13:55.049Z,9.48
2023-04-09T17:16:22.019Z,9.13
2023-04-09T17:18:48.755Z,8.13
2023-04-09T17:21:15.621Z,8.57
2023-04-09T17:23:42.752Z,7.05
2023-04-09T17:26:09.223Z,9.00
2023-04-09T17:28:36.147Z,8.45
2023-04-09T17:31:02.713Z,7.73
2023-04-09T17:33:29.266Z,8.05
2023-04-09T17:35:57.562Z,8.07
2023-04-09T17:38:25.301Z,7.90
2023-04-09T17:40:53.275Z,7.20
2023-04-09T17:43:19.703Z,6.60
2023-04-09T17:45:46.336Z,8.70
2023-04-09T17:48:12.744Z,7.45
2023-04-09T17:50:39.261Z,8.18
2023-04-09T17:53:05.651Z,9.20
2023-04-09T17:55:32.254Z,8.33
2023-04-09T17:57:58.715Z,8.88
2023-04-09T18:00:25.206Z,7.38
2023-04-09T18:02:53.258Z,6.13
2023-04-09T18:05:20.361Z,9.85
2023-04-09T18:07:46.970Z,7.53
2023-04-09T18:10:13.421Z,5.55
2023-04-09T18:12:39.955Z,8.45
2023-04-09T18:15:07.192Z,5.88
2023-04-09T18:17:33.821Z,6.50
2023-04-09T18:20:00.446Z,7.40
2023-04-09T18:22:27.401Z,7.57
2023-04-09T18:24:54.496Z,7.00
2023-04-09T18:27:21.587Z,9.30
2023-04-09T18:29:51.097Z,7.70
2023-04-09T18:32:19.379Z,8.97
2023-04-09T18:34:47.017Z,8.95
2023-04-09T18:37:14.596Z,9.35
2023-04-09T18:39:41.559Z,6.45
2023-04-09T18:42:08.128Z,6.22
2023-04-09T18:44:36.340Z,7.77
2023-04-09T18:47:05.925Z,6.75
2023-04-09T18:49:33.433Z,6.63
2023-04-09T18:52:00.294Z,9.13
2023-04-09T18:54:26.912Z,8.70
2023-04-09T18:56:53.575Z,8.23
2023-04-09T18:59:19.986Z,8.30
2023-04-09T19:01:46.465Z,8.57
2023-04-09T19:04:13.053Z,9.05
2023-04-09T19:06:39.619Z,10.52
2023-04-09T19:09:06.836Z,10.37
2023-04-09T19:14:13.709Z,6.72
2023-04-09T19:16:40.182Z,9.07
2023-04-09T19:19:06.602Z,8.00
2023-04-09T19:21:33.859Z,8.77
2023-04-09T19:24:00.371Z,7.82
2023-04-09T19:26:27.183Z,10.35
2023-04-09T19:28:53.896Z,11.38
2023-04-09T19:31:20.726Z,9.35
2023-04-09T19:33:47.313Z,8.53
2023-04-09T19:36:14.004Z,8.52
2023-04-09T19:38:41.078Z,10.20
2023-04-09T19:41:07.646Z,9.75
2023-04-09T19:43:34.405Z,5.97
2023-04-09T19:46:05.986Z,12.80
2023-04-09T19:48:32.791Z,6.40
2023-04-09T19:50:59.201Z,9.82
2023-04-09T19:53:25.630Z,8.85
2023-04-09T19:56:00.853Z,8.25
2023-04-09T19:58:33.630Z,9.17
2023-04-09T20:01:00.044Z,8.25
2023-04-09T20:03:26.561Z,12.23
2023-04-09T20:05:53.576Z,8.60
2023-04-09T20:08:20.019Z,7.97
2023-04-09T20:10:47.246Z,9.73
2023-04-09T20:13:13.922Z,8.15
2023-04-09T20:15:40.355Z,11.57
2023-04-09T20:18:07.344Z,7.90
2023-04-09T20:20:35.186Z,11.05
2023-04-09T20:23:01.781Z,9.80
2023-04-09T20:25:34.316Z,6.80
2023-04-09T20:28:12.416Z,11.18
2023-04-09T20:30:38.802Z,9.82
2023-04-09T20:33:05.233Z,7.93
2023-04-09T20:35:35.300Z,13.87
2023-04-09T20:38:01.914Z,10.02
2023-04-09T20:40:28.676Z,13.85
2023-04-09T20:45:36.249Z,10.43
2023-04-09T20:48:02.963Z,10.13
2023-04-09T20:50:31.001Z,10.82
2023-04-09T20:52:58.735Z,10.55
2023-04-09T20:55:25.966Z,13.30
2023-04-09T20:57:53.937Z,15.38
2023-04-09T21:00:20.558Z,11.30
2023-04-09T21:02:47.221Z,13.18
2023-04-09T21:05:22.782Z,9.30
2023-04-09T21:07:51.680Z,11.25
2023-04-09T21:10:22.198Z,14.82
2023-04-09T21:12:48.867Z,8.80
2023-04-09T21:15:21.742Z,11.48
2023-04-09T21:17:48.214Z,10.88
2023-04-09T21:20:16.557Z,14.23
2023-04-09T21:22:43.182Z,11.10
2023-04-09T21:25:09.706Z,13.20
2023-04-09T21:27:36.208Z,13.77
2023-04-09T21:30:02.819Z,11.35
2023-04-09T21:32:29.319Z,12.13
2023-04-09T21:34:55.773Z,10.25
2023-04-09T21:37:22.616Z,9.57
2023-04-09T21:39:49.120Z,10.98
2023-04-09T21:42:15.737Z,12.85
2023-04-09T21:44:42.212Z,10.40
2023-04-09T21:47:09.630Z,10.70
2023-04-09T21:49:39.186Z,10.40
2023-04-09T21:52:10.818Z,9.68
2023-04-09T21:54:37.360Z,8.90
2023-04-09T21:57:03.917Z,9.55
2023-04-09T21:59:30.744Z,10.55
2023-04-09T22:01:57.290Z,10.63
2023-04-09T22:04:23.826Z,11.18
2023-04-09T22:06:50.344Z,13.82
2023-04-09T22:09:17.125Z,9.50
2023-04-09T22:11:43.514Z,9.38
2023-04-09T22:14:10.662Z,9.53
2023-04-09T22:16:37.017Z,10.60
2023-04-09T22:19:03.962Z,11.23
2023-04-09T22:21:37.584Z,12.10
2023-04-09T22:24:04.027Z,10.25
2023-04-09T22:26:31.539Z,8.63
2023-04-09T22:28:58.137Z,11.68
2023-04-09T22:31:27.343Z,9.07
2023-04-09T22:33:53.871Z,13.07
2023-04-09T22:36:20.371Z,12.07
2023-04-09T22:38:46.977Z,9.83
2023-04-09T22:41:13.547Z,10.05
2023-04-09T22:43:39.949Z,12.35
2023-04-09T22:46:07.316Z,11.45
2023-04-09T22:48:40.760Z,9.38
2023-04-09T22:51:11.321Z,8.67
2023-04-09T22:53:37.706Z,9.85
2023-04-09T22:56:04.270Z,8.90
2023-04-09T22:58:30.795Z,10.45
2023-04-09T23:00:57.554Z,7.75
2023-04-09T23:03:25.961Z,9.43
2023-04-09T23:05:58.764Z,8.98
2023-04-09T23:08:25.451Z,9.57
2023-04-09T23:10:51.926Z,7.55
2023-04-09T23:13:18.545Z,10.85
2023-04-09T23:15:45.044Z,11.93
2023-04-09T23:18:11.937Z,8.55
2023-04-09T23:20:38.443Z,12.38
2023-04-09T23:23:04.874Z,11.40
2023-04-09T23:25:31.721Z,12.55
2023-04-09T23:27:58.119Z,15.53
2023-04-09T23:30:24.836Z,13.50
2023-04-09T23:32:56.318Z,11.75
2023-04-09T23:35:23.899Z,11.70
2023-04-09T23:37:50.479Z,12.18
2023-04-09T23:40:19.824Z,12.87
2023-04-09T23:42:47.888Z,11.05
2023-04-09T23:45:14.866Z,12.52
2023-04-09T23:47:42.267Z,10.25
2023-04-09T23:50:09.250Z,10.40
2023-04-09T23:52:37.965Z,10.43
2023-04-09T23:55:08.863Z,10.85
2023-04-09T23:57:35.590Z,13.30
